Südanflug-Wetter

Südanflüge sind sowohl am Euroairport Basel-Mulhouse-Freiburg als auch am Flughafen Unique Zürich ein Thema für die Anwohner. In Basel hängen Südanflüge von den Windverhältnissen ab. Für den Euroairport Basel-Mulhouse-Freiburg bereitet MeteoNews deshalb aktuelle Winddaten auf, die direkt auf der Homepage des Flughafens eingebunden werden. Angaben zum Flughafen Zürich finden Sie hier.

In Zürich sind Südanflüge auf die Piste 34 möglich, wenn die horizontale Sichtweite mindestens 750 m beträgt und die Wolkenuntergrenze im Anflugsektor nicht tiefer als 300 Fuss (knapp 100 m) liegt (diese Werte gelten seit dem 1. November 2004).

Prognose für Südanflüge

Am Mittwoch sind Südanflüge möglich.
(Prognose ohne Gewähr. Die Vorhersage wird mehrmals täglich aktualisiert. Verantwortlicher Meteorologe: Patrick Suter, 20.06.2018 04:44)

Analyse der letzten METAR-Messungen

Unser Tool wertet die letzten 20 offiziellen Wettermeldungen (METAR) des Flughafens Zürich aus und entscheidet aufgrund der beiden Werte für Sichtweite und Ceiling (Hauptwolkenuntergrenze), ob Südanflüge nach obiger Definition möglich wären. Allerdings repräsentiert der Wert für die Wolkenuntergrenze in der METAR-Meldung nicht die Bewölkung im Anflugsektor sondern generell um den Flughafen. Da über die Bewölkung im Anflugsektor kurzfristig aufgrund von Beobachtungen des Towers und von Piloten entschieden wird, kann die Angabe unseres Tools in gewissen Fällen von den realen Entscheiden der Flugsicherung abweichen.

Südanflüge Datum Uhrzeit Sichtweite Ceiling Vollständige METAR-Meldung
möglich 2018-06-20 08:20:00 > 10 km LSZH 200620Z VRB03KT CAVOK 19/14 Q1023 NOSIG
möglich 2018-06-20 07:50:00 > 10 km LSZH 200550Z 00000KT CAVOK 18/14 Q1023 NOSIG
möglich 2018-06-20 07:20:00 > 10 km LSZH 200520Z 00000KT CAVOK 17/14 Q1023 NOSIG=
möglich 2018-06-20 06:50:00 > 10 km LSZH 200450Z 00000KT CAVOK 15/13 Q1023 NOSIG
möglich 2018-06-20 06:20:00 > 10 km LSZH 200420Z 00000KT CAVOK 14/12 Q1023 NOSIG
möglich 2018-06-20 05:50:00 > 10 km LSZH 200350Z 00000KT CAVOK 14/12 Q1022 NOSIG
möglich 2018-06-20 05:20:00 > 10 km LSZH 200320Z 00000KT CAVOK 14/12 Q1022 NOSIG
möglich 2018-06-20 04:50:00 > 10 km LSZH 200250Z 00000KT CAVOK 14/12 Q1022 NOSIG
möglich 2018-06-20 04:20:00 > 10 km LSZH 200220Z 00000KT CAVOK 15/12 Q1023 NOSIG
möglich 2018-06-20 03:50:00 > 10 km LSZH 200150Z 35003KT CAVOK 16/13 Q1023 NOSIG
möglich 2018-06-20 03:20:00 > 10 km LSZH 200120Z 35002KT CAVOK 16/13 Q1023 NOSIG
möglich 2018-06-20 02:50:00 > 10 km LSZH 200050Z 30003KT CAVOK 15/13 Q1023 NOSIG
möglich 2018-06-20 01:50:00 > 10 km LSZH 192350Z 31003KT 290V360 CAVOK 15/13 Q1023 NOSIG
möglich 2018-06-20 01:20:00 > 10 km LSZH 192320Z 29005KT CAVOK 15/13 Q1023 NOSIG
möglich 2018-06-20 00:50:00 > 10 km LSZH 192250Z 31005KT CAVOK 15/13 Q1023 NOSIG
möglich 2018-06-20 00:20:00 > 10 km LSZH 192220Z 24003KT CAVOK 16/13 Q1023 NOSIG
möglich 2018-06-19 23:50:00 > 10 km LSZH 192150Z 32003KT CAVOK 16/13 Q1023 NOSIG
möglich 2018-06-19 23:20:00 > 10 km LSZH 192120Z 31003KT CAVOK 17/13 Q1023 NOSIG
möglich 2018-06-19 22:50:00 > 10 km LSZH 192050Z 33003KT CAVOK 17/13 Q1023 NOSIG
möglich 2018-06-19 22:20:00 > 10 km LSZH 192020Z VRB01KT CAVOK 19/13 Q1023 NOSIG